sim
Sign-in with your pilot id or email,
or register
Callsign
Passwort

Schedule Details

Flight Number: DLH2512 (1)
Departure: Munich Airport (EDDM) at 21:00
Arrival: Birmingham Airport (EGBB) at 23:05
Route: Lufthansa Passenger Schedule. Enter filed route here before submitting Pirep.

Weather Information
Getting current METAR information for EDDM 240220Z VRB02KT CAVOK 10/09 Q1009 NOSIG
Getting current METAR information for EGBB 240220Z 18005KT 160V220 CAVOK 07/06 Q0997

Schedule Frequency

Route Map